Time,TemperatureF,DewpointF,PressureIn,WindDirection,WindDirectionDegrees,WindSpeedMPH,WindSpeedGustMPH,Humidity,HourlyPrecipIn,Conditions,Clouds,dailyrainin,SoftwareType,DateUTC
2013-10-25 00:04:00,40.5,-52.8,30.05,West,270,4.7,-999.0,1,-99.99,,,0.00,Acu-Link.com,2013-10-25 04:04:00,
2013-10-25 00:19:00,40.1,-53.0,30.06,West,270,3.7,-999.0,1,-99.99,,,0.00,Acu-Link.com,2013-10-25 04:19:00,
2013-10-25 00:35:00,39.9,-53.2,30.06,West,270,4.2,-999.0,1,-99.99,,,0.00,Acu-Link.com,2013-10-25 04:35:00,
2013-10-25 00:50:00,39.6,-53.3,30.06,West,270,2.7,-999.0,1,-99.99,,,0.00,Acu-Link.com,2013-10-25 04:50:00,
2013-10-25 01:05:00,39.0,-53.7,30.06,West,270,1.7,-999.0,1,-99.99,,,0.00,Acu-Link.com,2013-10-25 05:05:00,
2013-10-25 01:20:00,38.3,-54.2,30.06,West,270,1.7,-999.0,1,-99.99,,,0.00,Acu-Link.com,2013-10-25 05:20:00,
2013-10-25 01:35:00,37.8,-54.5,30.07,West,270,2.2,-999.0,1,-99.99,,,0.00,Acu-Link.com,2013-10-25 05:35:00,
2013-10-25 01:51:00,37.4,-54.7,30.07,West,270,3.2,-999.0,1,-99.99,,,0.00,Acu-Link.com,2013-10-25 05:51:00,
2013-10-25 02:06:00,37.6,-54.6,30.07,West,270,2.7,-999.0,1,-99.99,,,0.00,Acu-Link.com,2013-10-25 06:06:00,
2013-10-25 02:21:00,38.7,-53.9,30.07,West,270,2.7,-999.0,1,-99.99,,,0.00,Acu-Link.com,2013-10-25 06:21:00,
2013-10-25 02:36:00,39.0,-53.7,30.07,West,270,4.2,-999.0,1,-99.99,,,0.00,Acu-Link.com,2013-10-25 06:36:00,
2013-10-25 02:52:00,38.7,-53.9,30.07,West,270,2.7,-999.0,1,-99.99,,,0.00,Acu-Link.com,2013-10-25 06:52:00,
2013-10-25 03:08:00,38.3,-54.2,30.07,West,270,2.7,-999.0,1,-99.99,,,0.00,Acu-Link.com,2013-10-25 07:08:00,
2013-10-25 03:23:00,38.3,-54.2,30.08,West,270,5.3,-999.0,1,-99.99,,,0.00,Acu-Link.com,2013-10-25 07:23:00,
2013-10-25 03:38:00,37.9,-54.4,30.07,West,270,3.7,-999.0,1,-99.99,,,0.00,Acu-Link.com,2013-10-25 07:38:00,
2013-10-25 03:53:00,38.1,-54.3,30.08,West,270,4.2,-999.0,1,-99.99,,,0.00,Acu-Link.com,2013-10-25 07:53:00,
2013-10-25 04:08:00,38.1,-54.3,30.07,West,270,3.2,-999.0,1,-99.99,,,0.00,Acu-Link.com,2013-10-25 08:08:00,
2013-10-25 04:23:00,38.1,-54.3,30.07,West,270,3.7,-999.0,1,-99.99,,,0.00,Acu-Link.com,2013-10-25 08:23:00,
2013-10-25 04:38:00,38.3,27.6,30.08,West,270,4.7,-999.0,65,-99.99,,,0.00,Acu-Link.com,2013-10-25 08:38:00,
2013-10-25 04:53:00,38.3,37.8,30.08,West,270,5.8,-999.0,98,-99.99,,,0.00,Acu-Link.com,2013-10-25 08:53:00,
2013-10-25 05:09:00,38.5,38.0,30.07,WNW,292,5.8,-999.0,98,-99.99,,,0.00,Acu-Link.com,2013-10-25 09:09:00,
2013-10-25 05:24:00,38.7,38.2,30.08,WNW,292,2.7,-999.0,98,-99.99,,,0.00,Acu-Link.com,2013-10-25 09:24:00,
2013-10-25 05:39:00,38.8,38.3,30.08,WNW,292,5.8,-999.0,98,-99.99,,,0.00,Acu-Link.com,2013-10-25 09:39:00,
2013-10-25 05:54:00,38.7,38.2,30.09,WNW,292,4.7,-999.0,98,-99.99,,,0.00,Acu-Link.com,2013-10-25 09:54:00,
2013-10-25 06:10:00,38.1,20.7,30.10,WNW,292,2.7,-999.0,49,-99.99,,,0.00,Acu-Link.com,2013-10-25 10:10:00,
2013-10-25 06:25:00,37.0,-55.0,30.12,WNW,292,5.3,-999.0,1,-99.99,,,0.00,Acu-Link.com,2013-10-25 10:25:00,
2013-10-25 06:40:00,36.9,-55.0,30.13,WNW,292,2.7,-999.0,1,-99.99,,,0.00,Acu-Link.com,2013-10-25 10:40:00,
2013-10-25 06:55:00,36.5,-55.3,30.13,West,270,4.2,-999.0,1,-99.99,,,0.00,Acu-Link.com,2013-10-25 10:55:00,
2013-10-25 07:11:00,36.5,-55.3,30.14,West,270,5.3,-999.0,1,-99.99,,,0.00,Acu-Link.com,2013-10-25 11:11:00,
2013-10-25 07:26:00,36.3,-55.4,30.15,West,270,4.2,-999.0,1,-99.99,,,0.00,Acu-Link.com,2013-10-25 11:26:00,
2013-10-25 07:41:00,36.5,-55.3,30.16,West,270,3.7,-999.0,1,-99.99,,,0.00,Acu-Link.com,2013-10-25 11:41:00,
2013-10-25 07:57:00,37.0,-55.0,30.16,West,270,2.7,-999.0,1,-99.99,,,0.00,Acu-Link.com,2013-10-25 11:57:00,
2013-10-25 08:12:00,37.9,-54.4,30.17,West,270,3.7,-999.0,1,-99.99,,,0.00,Acu-Link.com,2013-10-25 12:12:00,
2013-10-25 08:27:00,38.8,-53.8,30.17,West,270,5.3,-999.0,1,-99.99,,,0.00,Acu-Link.com,2013-10-25 12:27:00,
2013-10-25 08:42:00,40.1,39.3,30.17,West,270,5.3,-999.0,97,-99.99,,,0.00,Acu-Link.com,2013-10-25 12:42:00,
2013-10-25 08:58:00,41.0,6.1,30.18,West,270,5.8,-999.0,23,-99.99,,,0.00,Acu-Link.com,2013-10-25 12:58:00,
2013-10-25 09:13:00,42.4,-51.6,30.19,West,270,3.7,-999.0,1,-99.99,,,0.00,Acu-Link.com,2013-10-25 13:13:00,
2013-10-25 09:28:00,43.5,-50.9,30.18,NW,315,4.7,-999.0,1,-99.99,,,0.00,Acu-Link.com,2013-10-25 13:28:00,
2013-10-25 09:43:00,44.6,-50.3,30.18,WNW,292,10.4,-999.0,1,-99.99,,,0.00,Acu-Link.com,2013-10-25 13:43:00,
2013-10-25 09:58:00,46.8,-48.9,30.18,West,270,5.8,-999.0,1,-99.99,,,0.00,Acu-Link.com,2013-10-25 13:58:00,
2013-10-25 10:14:00,47.8,-48.3,30.18,NW,315,5.3,-999.0,1,-99.99,,,0.00,Acu-Link.com,2013-10-25 14:14:00,
2013-10-25 10:29:00,48.2,-48.1,30.18,NW,315,9.9,-999.0,1,-99.99,,,0.00,Acu-Link.com,2013-10-25 14:29:00,
2013-10-25 10:44:00,49.5,-47.3,30.17,NW,315,11.4,-999.0,1,-99.99,,,0.00,Acu-Link.com,2013-10-25 14:44:00,
2013-10-25 10:59:00,50.2,-46.8,30.17,WNW,292,5.8,-999.0,1,-99.99,,,0.00,Acu-Link.com,2013-10-25 14:59:00,
2013-10-25 11:14:00,50.0,-46.9,30.18,NNW,337,9.9,-999.0,1,-99.99,,,0.00,Acu-Link.com,2013-10-25 15:14:00,
2013-10-25 11:30:00,51.1,-46.3,30.17,NW,315,8.9,-999.0,1,-99.99,,,0.00,Acu-Link.com,2013-10-25 15:30:00,
2013-10-25 11:45:00,52.3,-45.5,30.17,NW,315,4.7,-999.0,1,-99.99,,,0.00,Acu-Link.com,2013-10-25 15:45:00,
2013-10-25 12:00:00,53.6,-44.7,30.17,NNW,337,6.3,-999.0,1,-99.99,,,0.00,Acu-Link.com,2013-10-25 16:00:00,
2013-10-25 12:15:00,52.5,-45.4,30.17,NNW,337,5.8,-999.0,1,-99.99,,,0.00,Acu-Link.com,2013-10-25 16:15:00,
2013-10-25 12:31:00,54.0,-44.5,30.17,North,0,5.3,-999.0,1,-99.99,,,0.00,Acu-Link.com,2013-10-25 16:31:00,
2013-10-25 12:46:00,55.6,-43.5,30.16,West,270,7.3,-999.0,1,-99.99,,,0.00,Acu-Link.com,2013-10-25 16:46:00,
2013-10-25 13:01:00,54.7,-44.1,30.16,NNW,337,6.3,-999.0,1,-99.99,,,0.00,Acu-Link.com,2013-10-25 17:01:00,
2013-10-25 13:16:00,54.7,-44.1,30.15,NNW,337,10.4,-999.0,1,-99.99,,,0.00,Acu-Link.com,2013-10-25 17:16:00,
2013-10-25 13:31:00,53.8,-44.6,30.15,NW,315,7.8,-999.0,1,-99.99,,,0.00,Acu-Link.com,2013-10-25 17:31:00,
2013-10-25 13:46:00,55.4,-43.7,30.14,West,270,7.8,-999.0,1,-99.99,,,0.00,Acu-Link.com,2013-10-25 17:46:00,
2013-10-25 14:01:00,55.6,-43.5,30.15,WNW,292,11.9,-999.0,1,-99.99,,,0.00,Acu-Link.com,2013-10-25 18:01:00,
2013-10-25 14:17:00,55.9,-43.3,30.15,WNW,292,5.8,-999.0,1,-99.99,,,0.00,Acu-Link.com,2013-10-25 18:17:00,
2013-10-25 14:32:00,57.0,-42.7,30.15,NW,315,9.9,-999.0,1,-99.99,,,0.00,Acu-Link.com,2013-10-25 18:32:00,
2013-10-25 14:47:00,56.3,-43.1,30.15,West,270,8.9,-999.0,1,-99.99,,,0.00,Acu-Link.com,2013-10-25 18:47:00,
2013-10-25 15:02:00,54.9,-44.0,30.15,West,270,14.5,-999.0,1,-99.99,,,0.00,Acu-Link.com,2013-10-25 19:02:00,
2013-10-25 15:17:00,55.4,-43.7,30.15,NNW,337,8.3,-999.0,1,-99.99,,,0.00,Acu-Link.com,2013-10-25 19:17:00,
2013-10-25 15:32:00,53.1,-45.1,30.16,WNW,292,4.7,-999.0,1,-99.99,,,0.00,Acu-Link.com,2013-10-25 19:32:00,
2013-10-25 15:47:00,55.2,-43.8,30.15,NNW,337,4.7,-999.0,1,-99.99,,,0.00,Acu-Link.com,2013-10-25 19:47:00,
2013-10-25 16:02:00,54.3,-44.3,30.16,NNW,337,4.7,-999.0,1,-99.99,,,0.00,Acu-Link.com,2013-10-25 20:02:00,
2013-10-25 16:17:00,54.7,-44.1,30.16,NW,315,8.3,-999.0,1,-99.99,,,0.00,Acu-Link.com,2013-10-25 20:17:00,
2013-10-25 16:33:00,55.0,-43.9,30.16,NW,315,8.9,-999.0,1,-99.99,,,0.00,Acu-Link.com,2013-10-25 20:33:00,
2013-10-25 16:49:00,54.9,-44.0,30.16,NW,315,6.8,-999.0,1,-99.99,,,0.00,Acu-Link.com,2013-10-25 20:49:00,
2013-10-25 17:04:00,53.4,-44.9,30.17,West,270,4.7,-999.0,1,-99.99,,,0.00,Acu-Link.com,2013-10-25 21:04:00,
2013-10-25 17:19:00,53.2,-45.0,30.17,WNW,292,5.8,-999.0,1,-99.99,,,0.00,Acu-Link.com,2013-10-25 21:19:00,
2013-10-25 17:34:00,53.1,-45.1,30.16,NE,45,5.3,-999.0,1,-99.99,,,0.00,Acu-Link.com,2013-10-25 21:34:00,
2013-10-25 17:49:00,52.0,-45.7,30.15,NNW,337,4.2,-999.0,1,-99.99,,,0.00,Acu-Link.com,2013-10-25 21:49:00,
2013-10-25 18:07:00,50.4,-46.7,30.16,NNW,337,6.3,-999.0,1,-99.99,,,0.00,Acu-Link.com,2013-10-25 22:07:00,
2013-10-25 18:22:00,49.5,-47.3,30.16,NNW,337,2.7,-999.0,1,-99.99,,,0.00,Acu-Link.com,2013-10-25 22:22:00,
2013-10-25 18:37:00,48.6,-47.8,30.17,NNW,337,0.0,-999.0,1,-99.99,,,0.00,Acu-Link.com,2013-10-25 22:37:00,
2013-10-25 18:53:00,47.8,-48.3,30.17,NNW,337,0.0,-999.0,1,-99.99,,,0.00,Acu-Link.com,2013-10-25 22:53:00,
2013-10-25 19:08:00,47.3,-48.6,30.17,NNW,337,0.0,-999.0,1,-99.99,,,0.00,Acu-Link.com,2013-10-25 23:08:00,
2013-10-25 19:23:00,46.4,-49.2,30.17,NNW,337,0.0,-999.0,1,-99.99,,,0.00,Acu-Link.com,2013-10-25 23:23:00,
2013-10-25 19:39:00,45.9,-49.5,30.18,NNW,337,0.0,-999.0,1,-99.99,,,0.00,Acu-Link.com,2013-10-25 23:39:00,
2013-10-25 19:54:00,45.3,-49.8,30.19,NNW,337,0.0,-999.0,1,-99.99,,,0.00,Acu-Link.com,2013-10-25 23:54:00,
2013-10-25 20:09:00,45.3,-49.8,30.18,NNW,337,0.0,-999.0,1,-99.99,,,0.00,Acu-Link.com,2013-10-26 00:09:00,
2013-10-25 20:25:00,45.0,-50.0,30.18,NNW,337,0.0,-999.0,1,-99.99,,,0.00,Acu-Link.com,2013-10-26 00:25:00,
2013-10-25 20:40:00,44.8,-50.1,30.18,NNW,337,0.0,-999.0,1,-99.99,,,0.00,Acu-Link.com,2013-10-26 00:40:00,
2013-10-25 20:55:00,44.1,-50.6,30.18,NNW,337,0.0,-999.0,1,-99.99,,,0.00,Acu-Link.com,2013-10-26 00:55:00,
2013-10-25 21:10:00,43.7,-50.8,30.19,NNW,337,0.0,-999.0,1,-99.99,,,0.00,Acu-Link.com,2013-10-26 01:10:00,
2013-10-25 21:26:00,42.8,-51.4,30.19,NNW,337,0.0,-999.0,1,-99.99,,,0.00,Acu-Link.com,2013-10-26 01:26:00,
2013-10-25 21:41:00,42.3,-51.7,30.20,NNW,337,0.0,-999.0,1,-99.99,,,0.00,Acu-Link.com,2013-10-26 01:41:00,
2013-10-25 21:57:00,42.3,-51.7,30.20,NNW,337,0.0,-999.0,1,-99.99,,,0.00,Acu-Link.com,2013-10-26 01:57:00,
2013-10-25 22:12:00,41.9,-51.9,30.21,NNW,337,0.0,-999.0,1,-99.99,,,0.00,Acu-Link.com,2013-10-26 02:12:00,
2013-10-25 22:27:00,41.7,41.2,30.21,NNW,337,0.0,-999.0,98,-99.99,,,0.00,Acu-Link.com,2013-10-26 02:27:00,
2013-10-25 22:42:00,42.1,4.0,30.22,NNW,337,0.0,-999.0,20,-99.99,,,0.00,Acu-Link.com,2013-10-26 02:42:00,
2013-10-25 22:57:00,41.7,41.2,30.22,NNW,337,0.0,-999.0,98,-99.99,,,0.00,Acu-Link.com,2013-10-26 02:57:00,
2013-10-25 23:13:00,41.4,40.6,30.22,NNW,337,2.2,-999.0,97,-99.99,,,0.00,Acu-Link.com,2013-10-26 03:13:00,
2013-10-25 23:28:00,41.5,41.0,30.22,NNW,337,2.2,-999.0,98,-99.99,,,0.00,Acu-Link.com,2013-10-26 03:28:00,
2013-10-25 23:43:00,41.5,41.0,30.22,NNW,337,3.7,-999.0,98,-99.99,,,0.00,Acu-Link.com,2013-10-26 03:43:00,
2013-10-25 23:59:00,41.5,-52.2,30.22,NNW,337,5.3,-999.0,1,-99.99,,,0.00,Acu-Link.com,2013-10-26 03:59:00,